Time;durP1;ratioP1;P1;durP2;ratioP2;P2;SDS_P1;SDS_P2;PMS_P1;PMS_P2;Temp;Humidity;BMP_temperature;BMP_pressure;BME280_temperature;BME280_humidity;BME280_pressure;Samples;Min_cycle;Max_cycle;Signal;HPM_P1;HPM_P2
2022/11/20 00:00:47;;;;;;;1.58;1.10;;;;;;;18.46;41.96;101184.22;16130915;19;130573;-43
2022/11/20 00:06:11;;;;;;;2.05;1.63;;;;;;;18.44;41.77;101178.94;16130169;19;129796;-43
2022/11/20 00:11:33;;;;;;;2.03;1.58;;;;;;;18.41;41.82;101182.19;16125608;19;129014;-44
2022/11/20 00:16:55;;;;;;;1.65;1.42;;;;;;;18.39;42.13;101186.25;16135577;19;129066;-43
2022/11/20 00:22:16;;;;;;;2.08;1.42;;;;;;;18.36;42.03;101187.53;16130410;19;130936;-43
2022/11/20 00:27:38;;;;;;;1.92;1.20;;;;;;;18.36;41.95;101192.25;16124669;19;129284;-43
2022/11/20 00:33:00;;;;;;;2.90;1.67;;;;;;;18.33;41.82;101204.66;16127214;19;131321;-43
2022/11/20 00:38:21;;;;;;;2.33;1.27;;;;;;;18.31;41.91;101196.56;16128219;19;130237;-43
2022/11/20 00:43:43;;;;;;;1.80;1.25;;;;;;;18.29;42.10;101192.34;16124444;19;128924;-43
2022/11/20 00:49:05;;;;;;;1.20;1.10;;;;;;;18.28;41.96;101185.13;16125773;19;130062;-43
2022/11/20 00:54:26;;;;;;;2.67;1.40;;;;;;;18.25;41.88;101202.22;16129152;19;129815;-44
2022/11/20 00:59:48;;;;;;;1.67;1.20;;;;;;;18.24;42.24;101197.75;16125736;19;129537;-43
2022/11/20 01:05:10;;;;;;;1.92;1.20;;;;;;;18.22;42.47;101194.38;16126075;19;130017;-43
2022/11/20 01:10:31;;;;;;;1.48;1.10;;;;;;;18.21;42.05;101206.56;16124872;19;129632;-43
2022/11/20 01:15:53;;;;;;;1.20;1.00;;;;;;;18.19;42.41;101205.94;16126416;19;129473;-43
2022/11/20 01:21:20;;;;;;;1.98;1.00;;;;;;;18.18;42.51;101202.31;16124746;19;130463;-43
2022/11/20 01:26:44;;;;;;;1.60;0.90;;;;;;;18.17;42.09;101194.25;16123034;19;129845;-43
2022/11/20 01:32:05;;;;;;;1.23;1.02;;;;;;;18.13;42.54;101178.09;16121507;19;130499;-43
2022/11/20 01:37:27;;;;;;;1.55;1.15;;;;;;;18.12;42.41;101181.94;16123966;19;130056;-43
2022/11/20 01:43:22;;;;;;;1.10;1.00;;;;;;;18.11;42.52;101180.25;16124004;19;129663;-43
2022/11/20 01:49:02;;;;;;;1.65;1.30;;;;;;;18.10;42.49;101184.09;16120785;19;129611;-43
2022/11/20 01:54:32;;;;;;;1.33;1.00;;;;;;;18.08;42.32;101171.59;16121685;19;129627;-43
2022/11/20 02:00:06;;;;;;;1.67;1.17;;;;;;;18.07;42.40;101170.75;16119683;19;130020;-43
2022/11/20 02:05:51;;;;;;;1.10;1.00;;;;;;;18.06;42.25;101182.06;16119365;19;130428;-43
2022/11/20 02:11:13;;;;;;;1.10;1.00;;;;;;;18.02;42.57;101181.69;16121812;19;130350;-43
2022/11/20 02:16:39;;;;;;;1.35;0.98;;;;;;;18.01;42.48;101180.00;16121532;19;130544;-43
2022/11/20 02:22:17;;;;;;;1.75;1.17;;;;;;;18.00;42.27;101175.53;16120674;19;130774;-43
2022/11/20 02:27:38;;;;;;;1.20;1.10;;;;;;;17.99;42.76;101165.53;16120712;19;129733;-43
2022/11/20 02:33:00;;;;;;;1.60;1.20;;;;;;;17.98;42.43;101167.47;16128996;19;129563;-44
2022/11/20 02:38:25;;;;;;;1.00;0.90;;;;;;;17.97;42.38;101162.19;16135176;19;130588;-44
2022/11/20 02:43:47;;;;;;;0.82;0.82;;;;;;;17.98;42.90;101172.16;16135040;19;129449;-43
2022/11/20 02:49:08;;;;;;;0.90;0.80;;;;;;;17.96;42.84;101163.28;16135530;19;129558;-43
2022/11/20 02:54:30;;;;;;;1.30;0.98;;;;;;;17.95;42.48;101164.34;16136460;19;130219;-43
2022/11/20 02:59:52;;;;;;;1.25;0.98;;;;;;;17.93;42.66;101169.28;16133148;19;129843;-43
2022/11/20 03:05:14;;;;;;;1.08;0.90;;;;;;;17.92;42.93;101164.81;16132637;19;129888;-43
2022/11/20 03:10:35;;;;;;;1.23;0.90;;;;;;;17.90;42.98;101150.34;16132646;19;129385;-43
2022/11/20 03:15:57;;;;;;;1.13;1.02;;;;;;;17.89;42.67;101138.47;16133751;19;129572;-43
2022/11/20 03:21:19;;;;;;;1.40;0.80;;;;;;;17.88;42.98;101135.91;16134413;19;129676;-43
2022/11/20 03:26:41;;;;;;;1.10;0.82;;;;;;;17.87;42.91;101135.06;16131573;19;130435;-44
2022/11/20 03:32:02;;;;;;;1.00;0.95;;;;;;;17.84;42.74;101119.78;16132631;19;129441;-43
2022/11/20 03:37:24;;;;;;;0.85;0.77;;;;;;;17.84;43.07;101130.88;16132998;19;129400;-43
2022/11/20 03:42:46;;;;;;;1.08;0.88;;;;;;;17.82;42.63;101115.56;16127625;19;130649;-43
2022/11/20 03:48:07;;;;;;;1.02;0.70;;;;;;;17.82;42.94;101121.94;16131738;19;129879;-43
2022/11/20 03:53:29;;;;;;;1.02;0.93;;;;;;;17.81;42.98;101120.25;16130302;19;129393;-43
2022/11/20 03:58:51;;;;;;;0.65;0.60;;;;;;;17.80;42.68;101129.63;16130197;19;133983;-43
2022/11/20 04:04:12;;;;;;;0.70;0.70;;;;;;;17.80;43.11;101129.63;16129074;19;130337;-43
2022/11/20 04:09:34;;;;;;;0.70;0.70;;;;;;;17.78;42.75;101126.25;16128109;19;129429;-43
2022/11/20 04:14:56;;;;;;;1.20;0.90;;;;;;;17.77;42.66;101115.44;16129720;19;133927;-43
2022/11/20 04:20:18;;;;;;;1.35;1.00;;;;;;;17.75;43.11;101112.06;16127256;19;129196;-43
2022/11/20 04:25:39;;;;;;;1.10;0.73;;;;;;;17.74;43.18;101108.44;16124374;19;129862;-43
2022/11/20 04:31:13;;;;;;;1.70;0.90;;;;;;;17.74;42.89;101108.44;16128066;19;130163;-43
2022/11/20 04:36:35;;;;;;;1.48;0.80;;;;;;;17.73;42.73;101105.91;16125988;19;129470;-44
2022/11/20 04:47:37;;;;;;;0.70;0.60;;;;;;;17.71;43.24;101102.53;16124958;19;130675;-43
2022/11/20 04:52:58;;;;;;;0.73;0.73;;;;;;;17.70;42.87;101096.16;16126470;19;129160;-43
2022/11/20 04:58:20;;;;;;;0.60;0.60;;;;;;;17.68;43.18;101092.78;16124303;19;129616;-43
2022/11/20 05:03:43;;;;;;;0.68;0.60;;;;;;;17.68;43.34;101101.09;16122585;19;129916;-43
2022/11/20 05:09:05;;;;;;;0.80;0.75;;;;;;;17.66;43.35;101097.72;16122446;19;129457;-43
2022/11/20 05:14:27;;;;;;;1.42;0.70;;;;;;;17.66;43.24;101092.16;16123541;19;129937;-44
2022/11/20 05:19:49;;;;;;;0.60;0.55;;;;;;;17.64;43.27;101086.88;16125831;19;129485;-43
2022/11/20 05:25:13;;;;;;;0.50;0.50;;;;;;;17.63;43.41;101089.88;16125125;19;130397;-43
2022/11/20 05:30:35;;;;;;;0.85;0.60;;;;;;;17.63;43.51;101084.34;16122726;19;129760;-43
2022/11/20 05:36:00;;;;;;;0.73;0.73;;;;;;;17.63;43.37;101084.34;16123431;19;130421;-43
2022/11/20 05:41:22;;;;;;;1.95;1.33;;;;;;;17.60;43.15;101093.97;16123052;19;130236;-43
2022/11/20 05:46:44;;;;;;;2.95;1.50;;;;;;;17.58;43.30;101096.09;16119814;19;129187;-43
2022/11/20 05:52:05;;;;;;;7.18;2.22;;;;;;;17.58;43.21;101089.75;16120046;19;129425;-43
2022/11/20 05:57:27;;;;;;;9.25;2.10;;;;;;;17.58;42.91;101081.44;16118154;19;130744;-44
2022/11/20 06:02:49;;;;;;;7.25;1.52;;;;;;;17.57;43.23;101079.75;16116562;19;130372;-43
2022/11/20 06:08:11;;;;;;;4.80;1.67;;;;;;;17.54;43.24;101065.31;16126099;19;129955;-43
2022/11/20 06:13:33;;;;;;;4.88;1.92;;;;;;;17.54;43.19;101059.78;16136289;19;129507;-43
2022/11/20 06:19:01;;;;;;;7.63;1.52;;;;;;;17.53;42.89;101052.53;16134628;19;129254;-43
2022/11/20 06:24:25;;;;;;;5.32;1.60;;;;;;;17.52;42.99;101034.25;16135202;19;129696;-43
2022/11/20 06:29:46;;;;;;;4.53;1.33;;;;;;;17.51;42.89;101027.03;16136480;19;129367;-43
2022/11/20 06:35:09;;;;;;;3.35;1.35;;;;;;;17.50;42.95;101033.63;16136605;19;131209;-33
2022/11/20 06:40:30;;;;;;;1.73;1.20;;;;;;;17.52;43.04;101050.00;16135122;19;129059;-33
2022/11/20 06:45:53;;;;;;;5.32;1.48;;;;;;;17.67;43.17;101060.66;16137068;19;129305;-33
2022/11/20 06:51:15;;;;;;;2.35;1.40;;;;;;;18.11;42.70;101054.84;16137188;19;129675;-33
2022/11/20 06:56:37;;;;;;;3.17;1.27;;;;;;;18.68;42.03;101062.56;16132799;19;129420;-33
2022/11/20 07:01:59;;;;;;;1.60;1.10;;;;;;;19.11;41.07;101049.31;16133255;19;130210;-33
2022/11/20 07:07:20;;;;;;;3.65;1.20;;;;;;;19.36;41.21;101051.75;16132337;19;129506;-33
2022/11/20 07:12:42;;;;;;;1.92;1.33;;;;;;;19.47;40.53;101046.41;16132408;19;129236;-33
2022/11/20 07:18:04;;;;;;;1.45;1.23;;;;;;;19.47;40.52;101043.63;16128733;19;129630;-33
2022/11/20 07:23:26;;;;;;;7.30;1.98;;;;;;;19.38;40.66;101046.81;16129495;19;130796;-33
2022/11/20 07:28:47;;;;;;;8.30;2.13;;;;;;;19.31;40.46;101056.38;16128836;19;129472;-33
2022/11/20 07:34:09;;;;;;;12.52;2.28;;;;;;;19.23;41.08;101052.06;16130752;19;129273;-33
2022/11/20 07:39:31;;;;;;;7.25;2.50;;;;;;;19.21;40.97;101054.22;16128695;19;129645;-33
2022/11/20 07:44:52;;;;;;;9.52;2.50;;;;;;;19.12;40.85;101050.13;16130999;19;129400;-32
2022/11/20 07:50:15;;;;;;;11.45;2.90;;;;;;;19.02;41.11;101043.31;16131944;19;129769;-33
2022/11/20 07:55:37;;;;;;;8.32;2.58;;;;;;;18.93;41.12;101058.66;16128142;19;129828;-33
2022/11/20 08:01:03;;;;;;;8.75;2.78;;;;;;;18.85;41.39;101050.69;16128042;19;130212;-32
2022/11/20 08:06:25;;;;;;;8.73;2.30;;;;;;;18.76;41.10;101031.69;16127239;19;129252;-33
2022/11/20 08:17:37;;;;;;;7.45;2.97;;;;;;;18.60;41.47;101038.84;16116484;19;130427;-33
2022/11/20 08:23:05;;;;;;;8.60;4.22;;;;;;;18.54;41.51;101044.50;16116430;19;130067;-32
2022/11/20 08:28:27;;;;;;;12.27;3.40;;;;;;;18.48;41.36;101048.22;16116055;19;129699;-33
2022/11/20 08:33:49;;;;;;;7.43;3.72;;;;;;;18.43;41.61;101035.97;16118296;19;129827;-32
2022/11/20 08:39:12;;;;;;;10.02;3.22;;;;;;;18.43;41.48;101022.13;16116914;19;129680;-33
2022/11/20 08:44:34;;;;;;;18.88;5.22;;;;;;;18.45;41.10;101039.34;16108296;19;129912;-34
2022/11/20 08:49:55;;;;;;;20.48;5.90;;;;;;;18.43;41.26;101016.56;16115604;19;129691;-34
2022/11/20 08:55:17;;;;;;;18.98;9.77;;;;;;;18.33;39.36;101005.25;16123131;19;129973;-33
2022/11/20 09:00:39;;;;;;;16.98;9.25;;;;;;;18.25;39.54;100997.28;16121050;19;129368;-37
2022/11/20 09:06:05;;;;;;;15.95;8.63;;;;;;;18.22;39.34;100992.22;16124531;19;129611;-36
2022/11/20 09:11:27;;;;;;;15.90;7.63;;;;;;;18.20;39.82;100978.63;16123553;19;130126;-36
2022/11/20 09:16:49;;;;;;;16.38;6.72;;;;;;;18.20;39.96;100981.41;16123049;19;130309;-33
2022/11/20 09:22:11;;;;;;;13.32;6.20;;;;;;;18.20;40.11;100978.63;16122572;19;129186;-36
2022/11/20 09:27:32;;;;;;;17.42;6.18;;;;;;;18.18;39.76;100971.66;16121726;19;129657;-34
2022/11/20 09:32:54;;;;;;;13.27;6.10;;;;;;;18.16;39.88;100966.34;16123415;19;129717;-33
2022/11/20 09:38:16;;;;;;;13.50;6.15;;;;;;;18.13;40.00;100941.94;16122636;19;133951;-33
2022/11/20 09:43:53;;;;;;;9.27;5.72;;;;;;;18.12;39.71;100938.31;16119081;19;129651;-33
2022/11/20 09:49:23;;;;;;;13.70;5.75;;;;;;;18.19;39.90;100937.34;16119884;19;130353;-34
2022/11/20 09:54:54;;;;;;;13.38;5.72;;;;;;;18.37;39.59;100928.03;16119923;19;129709;-33
2022/11/20 10:00:19;;;;;;;11.88;5.18;;;;;;;18.55;39.41;100927.88;16121433;19;133651;-33
2022/11/20 10:05:48;;;;;;;14.37;5.43;;;;;;;18.72;38.96;100918.81;16118689;19;130871;-34
2022/11/20 10:11:12;;;;;;;10.13;5.20;;;;;;;18.86;38.99;100927.66;16108821;19;130262;-35
2022/11/20 10:16:37;;;;;;;9.02;4.90;;;;;;;18.92;39.26;100918.34;16116739;19;129371;-35
2022/11/20 10:22:04;;;;;;;9.98;4.45;;;;;;;18.92;39.35;100910.03;16118465;19;130425;-38
2022/11/20 10:27:32;;;;;;;10.80;5.30;;;;;;;18.92;39.07;100896.19;16115557;19;129806;-40
2022/11/20 10:33:15;;;;;;;16.67;6.20;;;;;;;19.01;38.98;100880.81;16115238;19;130002;-37
2022/11/20 10:38:42;;;;;;;15.73;5.85;;;;;;;19.12;39.49;100861.56;16117384;19;129752;-38
2022/11/20 10:50:14;;;;;;;15.63;5.30;;;;;;;19.22;39.34;100840.44;16117739;19;129920;-39
2022/11/20 10:55:56;;;;;;;11.48;5.15;;;;;;;19.22;39.33;100846.00;16128158;19;130288;-39
2022/11/20 11:01:23;;;;;;;19.05;5.55;;;;;;;19.16;39.17;100833.09;16131199;19;129507;-40
2022/11/20 11:06:48;;;;;;;30.60;17.65;;;;;;;19.05;38.13;100820.16;16133555;19;129674;-39
2022/11/20 11:12:11;;;;;;;;;;;;;;;18.88;37.19;100811.81;16131753;19;130078;-38
2022/11/20 11:17:34;;;;;;;25.27;15.82;;;;;;;18.81;37.04;100806.44;16133338;19;130035;-39
2022/11/20 11:22:58;;;;;;;26.17;14.48;;;;;;;18.79;36.84;100799.47;16130647;19;130124;-38
2022/11/20 11:28:24;;;;;;;25.95;13.48;;;;;;;18.79;37.17;100786.44;16129869;19;129314;-39
2022/11/20 11:33:46;;;;;;;17.35;11.20;;;;;;;18.82;37.23;100782.34;16128015;19;129705;-39
2022/11/20 11:39:17;;;;;;;19.85;10.25;;;;;;;18.85;37.31;100760.50;16127884;19;129009;-38
2022/11/20 11:50:27;;;;;;;21.23;10.40;;;;;;;19.20;37.06;100714.19;16129446;19;130177;-41
2022/11/20 11:55:59;;;;;;;15.55;8.93;;;;;;;19.35;37.19;100706.09;16129948;19;129662;-41
2022/11/20 12:01:44;;;;;;;14.90;8.00;;;;;;;19.45;37.46;100710.09;16128759;19;130755;-39
2022/11/20 12:07:20;;;;;;;16.58;8.45;;;;;;;19.51;37.34;100692.44;16128756;19;129517;-39
2022/11/20 12:13:15;;;;;;;13.15;7.40;;;;;;;19.51;37.23;100678.56;16128145;19;129704;-42
2022/11/20 12:18:38;;;;;;;10.87;7.17;;;;;;;19.48;37.75;100667.97;16128021;19;129275;-42
2022/11/20 12:24:24;;;;;;;12.00;7.18;;;;;;;19.47;37.61;100647.72;16128794;19;129307;-41
2022/11/20 12:30:14;;;;;;;15.37;6.77;;;;;;;19.47;37.98;100638.53;16127759;19;129879;-41
2022/11/20 12:35:53;;;;;;;12.43;7.10;;;;;;;19.43;38.12;100634.63;16126904;19;129411;-40
2022/11/20 12:47:35;;;;;;;12.18;7.30;;;;;;;19.25;37.61;100602.53;16126053;19;129716;-40
2022/11/20 12:53:05;;;;;;;11.23;7.55;;;;;;;19.19;37.91;100598.81;16126192;19;129726;-39
2022/11/20 12:58:35;;;;;;;13.30;8.00;;;;;;;19.16;37.77;100591.81;16123321;19;129269;-39
2022/11/20 13:04:02;;;;;;;13.70;7.28;;;;;;;19.15;38.08;100590.16;16125383;19;129628;-41
2022/11/20 13:09:33;;;;;;;9.23;5.90;;;;;;;19.15;38.09;100581.00;16122339;19;129521;-40
2022/11/20 13:15:16;;;;;;;9.63;6.07;;;;;;;19.22;38.00;100568.66;16123044;19;129943;-41
2022/11/20 13:20:46;;;;;;;11.35;5.85;;;;;;;19.37;37.96;100562.44;16122767;19;129360;-42
2022/11/20 13:26:23;;;;;;;11.35;4.97;;;;;;;19.59;38.19;100553.22;16120483;19;129833;-42
2022/11/20 13:31:46;;;;;;;14.77;4.88;;;;;;;19.73;38.10;100533.38;16121554;19;129747;-40
2022/11/20 13:37:29;;;;;;;6.60;4.20;;;;;;;19.77;37.75;100506.78;16121563;19;131191;-43
2022/11/20 13:43:15;;;;;;;11.60;3.90;;;;;;;19.75;38.23;100492.31;16120719;19;130315;-42
2022/11/20 13:48:43;;;;;;;6.53;4.50;;;;;;;19.67;38.28;100488.94;16120926;19;130358;-41
2022/11/20 13:54:40;;;;;;;12.45;4.53;;;;;;;19.58;38.78;100471.09;16119672;19;130400;-40
2022/11/20 14:00:16;;;;;;;8.90;3.50;;;;;;;19.47;39.16;100449.91;16117726;19;129893;-40
2022/11/20 14:05:48;;;;;;;12.43;3.80;;;;;;;19.36;38.88;100446.22;16119918;19;129499;-43
2022/11/20 14:11:28;;;;;;;15.32;3.00;;;;;;;19.26;39.25;100435.84;16119630;19;129886;-42
2022/11/20 14:16:50;;;;;;;9.45;3.55;;;;;;;19.16;39.41;100414.38;16119938;19;130100;-41
2022/11/20 14:22:24;;;;;;;9.52;3.40;;;;;;;19.11;39.43;100410.69;16118252;19;130548;-41
2022/11/20 14:27:57;;;;;;;29.50;3.70;;;;;;;19.02;40.12;100400.09;16121487;19;129303;-41
2022/11/20 14:33:19;;;;;;;37.63;4.57;;;;;;;18.94;40.34;100399.72;16134521;19;128980;-42
2022/11/20 14:38:42;;;;;;;14.93;3.40;;;;;;;18.87;40.27;100395.25;16137140;19;129888;-40
2022/11/20 14:44:04;;;;;;;13.95;2.47;;;;;;;18.90;40.59;100386.38;16135125;19;129993;-42
2022/11/20 14:49:29;;;;;;;10.63;2.55;;;;;;;18.98;40.35;100387.03;16136691;19;130253;-40
2022/11/20 14:54:54;;;;;;;12.88;2.35;;;;;;;19.05;40.74;100373.78;16134535;19;130358;-41
2022/11/20 15:00:16;;;;;;;9.45;2.40;;;;;;;19.12;40.42;100368.00;16133680;19;129895;-40
2022/11/20 15:05:46;;;;;;;12.38;1.88;;;;;;;19.19;40.53;100352.84;16132498;19;129587;-40
2022/11/20 15:11:19;;;;;;;17.45;2.00;;;;;;;19.23;41.00;100339.31;16127826;19;129919;-39
2022/11/20 15:16:41;;;;;;;5.25;1.92;;;;;;;19.22;41.67;100337.63;16131740;19;130790;-40
2022/11/20 15:22:04;;;;;;;7.97;1.60;;;;;;;19.17;41.93;100326.47;16131151;19;129897;-40
2022/11/20 15:27:26;;;;;;;8.45;1.85;;;;;;;19.13;42.37;100314.25;16130314;19;129169;-41
2022/11/20 15:32:48;;;;;;;6.65;1.85;;;;;;;19.07;42.85;100321.69;16128202;19;129531;-39
2022/11/20 15:38:10;;;;;;;4.18;1.50;;;;;;;19.02;42.91;100316.94;16130132;19;129462;-39
2022/11/20 15:43:31;;;;;;;9.38;1.67;;;;;;;18.98;43.06;100323.28;16129530;19;129621;-41
2022/11/20 15:48:57;;;;;;;5.13;1.50;;;;;;;18.93;43.22;100315.75;16129876;19;129302;-40
2022/11/20 15:54:20;;;;;;;;;;;;;;;18.85;43.40;100307.91;16131096;19;129602;-39
2022/11/20 15:59:43;;;;;;;12.88;1.63;;;;;;;18.83;43.49;100299.03;16130080;19;130474;-40
2022/11/20 16:05:11;;;;;;;6.68;1.27;;;;;;;18.82;43.73;100303.72;16130458;19;129227;-41
2022/11/20 16:10:32;;;;;;;4.78;1.25;;;;;;;18.79;43.93;100295.09;16129926;19;129391;-41
2022/11/20 16:15:57;;;;;;;4.88;1.30;;;;;;;18.80;44.46;100294.81;16129873;19;130487;-41
2022/11/20 16:21:19;;;;;;;6.43;1.00;;;;;;;18.89;45.84;100306.28;16127137;19;129748;-40
2022/11/20 16:26:41;;;;;;;4.65;1.50;;;;;;;19.07;45.15;100303.13;16128072;19;135531;-40
2022/11/20 16:32:03;;;;;;;4.97;1.90;;;;;;;19.29;44.93;100318.84;16124993;19;129452;-42
2022/11/20 16:37:25;;;;;;;7.20;2.00;;;;;;;19.53;44.40;100312.91;16125504;19;129683;-40
2022/11/20 16:42:46;;;;;;;5.70;1.90;;;;;;;19.75;44.45;100303.59;16125499;19;129418;-41
2022/11/20 16:48:12;;;;;;;9.38;2.20;;;;;;;19.89;44.76;100303.94;16126596;19;129758;-41
2022/11/20 16:53:33;;;;;;;6.32;2.33;;;;;;;19.96;44.63;100316.47;16126024;19;130225;-42
2022/11/20 16:58:57;;;;;;;9.70;2.92;;;;;;;19.97;45.35;100312.59;16126424;19;129708;-41
2022/11/20 17:04:18;;;;;;;7.90;3.65;;;;;;;19.90;45.14;100317.56;16123982;19;129643;-40
2022/11/20 17:09:40;;;;;;;15.00;4.75;;;;;;;19.83;45.47;100319.72;16122390;19;129386;-41
2022/11/20 17:15:02;;;;;;;9.50;4.78;;;;;;;19.75;46.10;100331.34;16118882;19;130122;-41
2022/11/20 17:20:24;;;;;;;14.77;7.35;;;;;;;19.64;46.13;100333.22;16118945;19;129571;-41
2022/11/20 17:25:45;;;;;;;12.63;7.50;;;;;;;19.57;46.19;100340.94;16117507;19;129368;-40
2022/11/20 17:31:10;;;;;;;18.42;7.93;;;;;;;19.52;46.19;100344.53;16116546;19;129827;-40
2022/11/20 17:36:33;;;;;;;15.95;8.43;;;;;;;19.47;46.13;100353.66;16121285;19;129398;-40
2022/11/20 17:47:36;;;;;;;17.73;7.93;;;;;;;19.35;46.67;100348.28;16117683;19;129555;-41
2022/11/20 17:52:57;;;;;;;15.48;7.30;;;;;;;19.32;47.09;100348.81;16117861;19;129712;-42
2022/11/20 17:58:19;;;;;;;17.85;8.27;;;;;;;19.31;47.09;100354.63;16108689;19;130279;-42
2022/11/20 18:03:41;;;;;;;15.27;7.63;;;;;;;19.29;47.45;100356.81;16111293;19;131842;-40
2022/11/20 18:09:04;;;;;;;20.98;8.07;;;;;;;19.28;47.61;100360.69;15967486;19;2941240;-40
2022/11/20 18:14:33;;;;;;;14.52;8.57;;;;;;;19.28;47.82;100355.16;16119655;19;129280;-41
2022/11/20 18:19:55;;;;;;;28.08;9.80;;;;;;;19.28;48.07;100357.91;16123530;19;131389;-40
2022/11/20 18:25:37;;;;;;;21.98;8.98;;;;;;;19.25;47.71;100358.47;16122498;19;130789;-43
2022/11/20 18:31:04;;;;;;;25.27;9.18;;;;;;;19.25;48.62;100359.28;16121813;19;129568;-41
2022/11/20 18:36:28;;;;;;;25.05;9.00;;;;;;;19.22;48.68;100368.13;16119092;19;129975;-41
2022/11/20 18:47:34;;;;;;;19.10;7.57;;;;;;;19.21;48.59;100377.56;16114622;19;129594;-42
2022/11/20 18:52:56;;;;;;;19.05;6.40;;;;;;;19.20;49.26;100371.16;16119950;19;130772;-46
2022/11/20 18:58:18;;;;;;;17.63;7.03;;;;;;;19.21;49.29;100383.09;16117576;19;129648;-41
2022/11/20 19:03:40;;;;;;;18.85;6.00;;;;;;;19.20;49.39;100393.34;16118906;19;130628;-41
2022/11/20 19:09:04;;;;;;;11.73;5.35;;;;;;;19.17;48.71;100398.56;16118559;19;131781;-41
2022/11/20 19:14:26;;;;;;;12.50;4.83;;;;;;;19.14;49.17;100399.91;16122403;19;129829;-41
2022/11/20 19:19:48;;;;;;;14.13;4.85;;;;;;;19.10;48.96;100397.94;16132492;19;129358;-43
2022/11/20 19:25:10;;;;;;;14.93;4.22;;;;;;;19.06;49.17;100401.25;16133689;19;129272;-42
2022/11/20 19:30:31;;;;;;;16.65;4.53;;;;;;;19.05;49.63;100399.59;16130899;19;129548;-41
2022/11/20 19:35:53;;;;;;;20.23;4.10;;;;;;;19.05;49.68;100398.72;16131913;19;130450;-44
2022/11/20 19:41:19;;;;;;;23.52;3.67;;;;;;;19.05;50.22;100407.91;16132830;19;129764;-41
2022/11/20 19:46:40;;;;;;;12.18;3.92;;;;;;;19.06;50.30;100412.34;16133446;19;130910;-41
2022/11/20 19:52:02;;;;;;;10.57;3.75;;;;;;;19.07;50.57;100408.47;16129271;19;130388;-41
2022/11/20 19:57:24;;;;;;;11.65;3.20;;;;;;;19.06;50.75;100409.56;16129433;19;129432;-41
2022/11/20 20:02:46;;;;;;;8.82;2.85;;;;;;;19.06;50.81;100420.66;16127712;19;129575;-41
2022/11/20 20:08:07;;;;;;;8.90;2.13;;;;;;;19.05;51.06;100424.53;16126309;19;129475;-40
2022/11/20 20:13:29;;;;;;;10.25;2.65;;;;;;;19.06;50.66;100426.22;16126258;19;128904;-41
2022/11/20 20:18:56;;;;;;;12.48;2.85;;;;;;;19.07;50.96;100425.13;16127499;19;130722;-42
2022/11/20 20:24:18;;;;;;;8.98;2.55;;;;;;;19.06;50.94;100431.75;16127785;19;129617;-44
2022/11/20 20:29:39;;;;;;;9.93;2.05;;;;;;;19.06;50.72;100453.94;16126271;19;129328;-42
2022/11/20 20:35:01;;;;;;;7.68;2.30;;;;;;;19.05;51.12;100443.94;16129015;19;130921;-43
2022/11/20 20:40:23;;;;;;;5.72;1.88;;;;;;;19.06;51.46;100450.31;16126165;19;129742;-41
2022/11/20 20:45:47;;;;;;;4.53;1.70;;;;;;;19.08;51.27;100451.72;16128287;19;130753;-41
2022/11/20 20:51:08;;;;;;;5.80;1.27;;;;;;;19.20;51.29;100465.44;16126099;19;129910;-40
2022/11/20 20:56:30;;;;;;;4.03;1.50;;;;;;;19.46;51.53;100459.31;16124109;19;130607;-42
2022/11/20 21:01:52;;;;;;;9.32;1.50;;;;;;;19.75;50.86;100476.53;16123245;19;129453;-41
2022/11/20 21:07:14;;;;;;;5.30;1.35;;;;;;;20.01;50.64;100471.16;16124842;19;129474;-42
2022/11/20 21:12:35;;;;;;;6.10;1.65;;;;;;;20.14;50.49;100478.22;16125803;19;129425;-45
2022/11/20 21:17:57;;;;;;;4.22;1.13;;;;;;;20.17;50.40;100477.69;16126050;19;128987;-41
2022/11/20 21:23:19;;;;;;;3.20;1.23;;;;;;;20.14;50.34;100475.44;16123542;19;129622;-43
2022/11/20 21:28:40;;;;;;;3.35;1.20;;;;;;;20.07;50.23;100475.66;16123628;19;129437;-43
2022/11/20 21:34:02;;;;;;;7.15;1.27;;;;;;;19.97;50.51;100472.78;16121625;19;129796;-42
2022/11/20 21:39:24;;;;;;;5.30;1.50;;;;;;;19.86;50.38;100482.16;16119929;19;129862;-41
2022/11/20 21:44:46;;;;;;;2.13;0.80;;;;;;;19.75;50.12;100489.53;16121255;19;129419;-42
2022/11/20 21:50:08;;;;;;;6.05;1.38;;;;;;;19.62;50.35;100485.28;16124028;19;131513;-42
2022/11/20 21:55:30;;;;;;;3.70;0.85;;;;;;;19.52;50.55;100486.03;16121689;19;130664;-42
2022/11/20 22:00:51;;;;;;;2.35;0.70;;;;;;;19.45;50.57;100482.59;16121607;19;129098;-41
2022/11/20 22:06:13;;;;;;;5.28;1.17;;;;;;;19.36;50.59;100480.31;16120416;19;129684;-40
2022/11/20 22:11:35;;;;;;;2.92;1.00;;;;;;;19.29;50.51;100493.56;16120896;19;129603;-40
2022/11/20 22:16:57;;;;;;;2.15;0.90;;;;;;;19.22;50.51;100488.22;16121831;19;129303;-42
2022/11/20 22:22:18;;;;;;;1.13;0.63;;;;;;;19.15;50.62;100500.59;16120020;19;129707;-40
2022/11/20 22:27:40;;;;;;;6.90;0.80;;;;;;;19.11;50.49;100504.97;16120189;19;129329;-43
2022/11/20 22:33:02;;;;;;;2.85;0.88;;;;;;;19.03;50.59;100496.03;16117790;19;129501;-40
2022/11/20 22:38:27;;;;;;;2.10;0.97;;;;;;;18.98;50.60;100506.22;16116026;19;130230;-42
2022/11/20 22:43:55;;;;;;;1.58;0.75;;;;;;;18.94;50.22;100525.31;16116799;19;129387;-42
2022/11/20 22:49:16;;;;;;;2.38;1.00;;;;;;;18.85;50.37;100524.06;16120492;19;131118;-43
2022/11/20 22:54:38;;;;;;;3.17;0.70;;;;;;;18.81;50.36;100532.06;16133632;19;130071;-40
2022/11/20 23:00:00;;;;;;;1.63;0.70;;;;;;;18.76;50.47;100540.34;16121451;19;129737;-40
2022/11/20 23:05:22;;;;;;;2.85;0.80;;;;;;;18.71;50.54;100535.53;16118045;19;131165;-42
2022/11/20 23:10:43;;;;;;;3.13;1.35;;;;;;;18.67;50.49;100539.94;16120572;19;129570;-41
2022/11/20 23:16:07;;;;;;;3.80;1.13;;;;;;;18.63;50.30;100535.97;16133771;19;129436;-42
2022/11/20 23:21:30;;;;;;;3.35;1.20;;;;;;;18.60;50.43;100544.78;16130349;19;129797;-41
2022/11/20 23:26:52;;;;;;;2.63;0.80;;;;;;;18.56;50.25;100543.66;16132934;19;130454;-41
2022/11/20 23:32:14;;;;;;;1.73;0.77;;;;;;;18.53;50.63;100549.69;16132075;19;129635;-41
2022/11/20 23:37:35;;;;;;;1.65;0.85;;;;;;;18.51;50.35;100557.41;16131942;19;129394;-40
2022/11/20 23:43:15;;;;;;;3.10;0.85;;;;;;;18.49;50.20;100559.59;16131960;19;129519;-41
2022/11/20 23:48:37;;;;;;;3.30;0.88;;;;;;;18.44;50.43;100558.44;16133057;19;129799;-40
2022/11/20 23:53:59;;;;;;;2.45;0.82;;;;;;;18.43;50.09;100556.78;16133099;19;129581;-41
2022/11/20 23:59:25;;;;;;;1.50;0.50;;;;;;;18.40;50.55;100557.28;16129805;19;129677;-41
